Sodtown, Nebraska
Current Conditions -  °F | °C
As of 2:15 PM on Saturday 25 Oct 2014 (Local Time) from KEAR Reporting Station
Clear Clear  
Wind Chill: 73°   Ceiling: Unl
Heat Index: 73°   Visibility: 10mi
Dew Point: 46°   Wind: 9mph
Humidity: 38%   Direction: 60°ENE
Pressure: 30.09"   Gusts: NA
Location:  41.0033°N, 98.8321°W
Report Text: KEAR 251915Z 06008KT 10SM CLR 23/08 A3009 RMK AO1
Loading
Personal Weather Stations






























Interactive Weather Map
Tropical Storm Tracking
New forecast layout! Learn more

10-Day Weather Forecast

Advertisements
Track Severe Weather on mobile